To NAV CANADA Home Page Login to a new session Search on AWWS site Disclaimer Vers la page française équivalente Tips FAQ What's new on the site To the Forecasts and Observations / NOTAM section To "File a Flight Plan" website Publications and other links Update of the User's profile FIC Telephone Numbers My Weather Data Folder Route Weather Data Regional Weather Data Local Weather Data To the Forecasts and Observations / NOTAM section
Request Generated 01/22/2020 at 23:21:12 UTC . Weather information available at that time is displayed.

METAR/TAF

KITCHENER/WATERLOO/ON    (show WxCam)

METAR CYKF 222300Z AUTO 20010G15KT 9SM BKN230 OVC250 M03/M06 A3024 RMK SLP260=
METAR CYKF 222200Z AUTO 20012KT 9SM FEW190 BKN220 M03/M06 A3024 RMK SLP258=
METAR CYKF 222100Z AUTO 19009G16KT 9SM SCT200 M02/M06 A3024 RMK SLP259=

TAF CYKF 221938Z 2220/2308 22012G22KT P6SM BKN220
BECMG 2220/2222 22012KT
FM230600 24006KT P6SM BKN200
BECMG 2306/2308 VRB03KT
RMK FCST BASED ON AUTO OBS. NXT FCST BY 230200Z=

LONDON/ON    

METAR CYXU 222300Z 19010KT 15SM FEW170 BKN220 M03/M06 A3026 RMK AC2CI3 SLP265=
METAR CYXU 222200Z 20013KT 15SM FEW170 BKN220 M03/M06 A3027 RMK AC2CI5 SLP266=
METAR CYXU 222100Z 20012KT 15SM FEW170 OVC220 M02/M07 A3027 RMK AC1CI8 AC TR SLP268=

TAF CYXU 221738Z 2218/2318 22012G22KT P6SM FEW015 BKN250
FM222300 22010KT P6SM BKN220
BECMG 2304/2306 VRB03KT
FM231400 16005KT P6SM BKN140 BKN200
RMK NXT FCST BY 230000Z=

HAMILTON/ON    

METAR CYHM 222300Z 21011KT 15SM SCT190 OVC240 M03/M06 A3028 RMK AC3CI5 SLP269=
METAR CYHM 222200Z 21011KT 15SM OVC190 M02/M06 A3027 RMK AC8 SLP265=
METAR CYHM 222100Z 21011KT 15SM FEW080 BKN190 OVC220 M02/M06 A3028 RMK AC1AS5CI2 SUN DIMLY VISBL SLP267=

TAF CYHM 221738Z 2218/2318 22012G22KT P6SM SCT020 BKN230 TEMPO
2218/2224 BKN020 BKN230
FM230200 23008KT P6SM BKN200
FM231700 20005KT P6SM BKN150 BKN200
RMK NXT FCST BY 230000Z=
Your time UTC time
Weather data provided by Environment Canada and NAV CANADA